createdAt,value
2023-04-03T00:00:11.030Z,-0.67
2023-04-03T00:03:00.027Z,-0.67
2023-04-03T00:05:28.680Z,-0.67
2023-04-03T00:07:58.110Z,-0.68
2023-04-03T00:10:28.535Z,-0.69
2023-04-03T00:12:59.725Z,-0.69
2023-04-03T00:15:29.736Z,-0.68
2023-04-03T00:18:02.760Z,-0.71
2023-04-03T00:20:33.970Z,-0.78
2023-04-03T00:23:03.698Z,-0.82
2023-04-03T00:25:34.083Z,-0.85
2023-04-03T00:28:03.115Z,-0.90
2023-04-03T00:30:32.542Z,-0.91
2023-04-03T00:33:02.265Z,-0.95
2023-04-03T00:35:31.912Z,-0.98
2023-04-03T00:38:02.379Z,-1.02
2023-04-03T00:40:34.975Z,-1.06
2023-04-03T00:43:11.985Z,-1.07
2023-04-03T00:45:42.588Z,-1.10
2023-04-03T00:48:15.188Z,-1.13
2023-04-03T00:50:44.844Z,-1.18
2023-04-03T00:53:18.137Z,-1.23
2023-04-03T00:55:50.492Z,-1.25
2023-04-03T00:58:22.058Z,-1.24
2023-04-03T01:00:58.761Z,-1.21
2023-04-03T01:03:29.097Z,-1.18
2023-04-03T01:05:59.261Z,-1.16
2023-04-03T01:08:28.069Z,-1.13
2023-04-03T01:10:57.218Z,-1.12
2023-04-03T01:13:29.593Z,-1.12
2023-04-03T01:15:59.078Z,-1.13
2023-04-03T01:18:28.675Z,-1.15
2023-04-03T01:20:57.925Z,-1.16
2023-04-03T01:23:32.768Z,-1.18
2023-04-03T01:26:01.496Z,-1.20
2023-04-03T01:28:32.480Z,-1.22
2023-04-03T01:31:21.005Z,-1.26
2023-04-03T01:33:51.145Z,-1.29
2023-04-03T01:36:22.928Z,-1.30
2023-04-03T01:38:52.205Z,-1.31
2023-04-03T01:41:22.623Z,-1.34
2023-04-03T01:43:53.247Z,-1.36
2023-04-03T01:46:22.884Z,-1.38
2023-04-03T01:48:52.791Z,-1.42
2023-04-03T01:51:21.511Z,-1.43
2023-04-03T01:53:50.473Z,-1.48
2023-04-03T01:56:21.569Z,-1.51
2023-04-03T01:58:51.522Z,-1.53
2023-04-03T02:01:22.608Z,-1.58
2023-04-03T02:03:53.064Z,-1.60
2023-04-03T02:06:21.916Z,-1.59
2023-04-03T02:08:51.806Z,-1.60
2023-04-03T02:11:23.473Z,-1.62
2023-04-03T02:13:55.603Z,-1.64
2023-04-03T02:16:25.533Z,-1.66
2023-04-03T02:18:55.168Z,-1.62
2023-04-03T02:21:26.584Z,-1.58
2023-04-03T02:23:59.577Z,-1.57
2023-04-03T02:26:28.359Z,-1.53
2023-04-03T02:28:58.807Z,-1.47
2023-04-03T02:31:28.663Z,-1.44
2023-04-03T02:34:00.556Z,-1.42
2023-04-03T02:36:32.916Z,-1.44
2023-04-03T02:39:05.338Z,-1.45
2023-04-03T02:41:36.837Z,-1.47
2023-04-03T02:44:10.433Z,-1.49
2023-04-03T02:46:40.523Z,-1.52
2023-04-03T02:49:11.755Z,-1.58
2023-04-03T02:51:40.903Z,-1.65
2023-04-03T02:54:10.200Z,-1.71
2023-04-03T02:56:41.671Z,-1.73
2023-04-03T02:59:12.294Z,-1.75
2023-04-03T03:01:41.920Z,-1.79
2023-04-03T03:04:10.781Z,-1.80
2023-04-03T03:06:40.430Z,-1.83
2023-04-03T03:09:09.303Z,-1.84
2023-04-03T03:11:39.551Z,-1.85
2023-04-03T03:14:11.891Z,-1.87
2023-04-03T03:16:41.107Z,-1.90
2023-04-03T03:19:09.802Z,-1.91
2023-04-03T03:21:38.968Z,-1.96
2023-04-03T03:24:09.727Z,-1.99
2023-04-03T03:26:38.428Z,-2.03
2023-04-03T03:29:07.118Z,-2.05
2023-04-03T03:31:37.228Z,-2.07
2023-04-03T03:34:06.807Z,-2.08
2023-04-03T03:36:36.095Z,-2.10
2023-04-03T03:39:05.922Z,-2.10
2023-04-03T03:41:34.940Z,-2.07
2023-04-03T03:44:05.321Z,-2.06
2023-04-03T03:46:34.518Z,-2.05
2023-04-03T03:49:05.718Z,-2.04
2023-04-03T03:51:34.788Z,-2.03
2023-04-03T03:54:05.217Z,-2.01
2023-04-03T03:56:34.528Z,-2.00
2023-04-03T03:59:03.299Z,-1.97
2023-04-03T04:01:33.837Z,-1.98
2023-04-03T04:04:03.083Z,-1.98
2023-04-03T04:06:34.975Z,-1.96
2023-04-03T04:09:07.330Z,-1.97
2023-04-03T04:11:42.090Z,-1.98
2023-04-03T04:14:14.186Z,-2.01
2023-04-03T04:16:44.696Z,-2.02
2023-04-03T04:19:18.687Z,-2.04
2023-04-03T04:21:48.737Z,-2.04
2023-04-03T04:24:20.093Z,-2.05
2023-04-03T04:26:51.557Z,-2.06
2023-04-03T04:29:21.282Z,-2.07
2023-04-03T04:31:54.126Z,-2.07
2023-04-03T04:34:24.543Z,-2.04
2023-04-03T04:36:59.159Z,-2.05
2023-04-03T04:39:31.036Z,-2.06
2023-04-03T04:42:01.527Z,-2.06
2023-04-03T04:44:31.726Z,-2.05
2023-04-03T04:47:03.353Z,-1.99
2023-04-03T04:49:32.833Z,-1.93
2023-04-03T04:52:03.312Z,-1.90
2023-04-03T04:54:34.098Z,-1.85
2023-04-03T04:57:04.274Z,-1.79
2023-04-03T04:59:36.607Z,-1.72
2023-04-03T05:02:06.153Z,-1.64
2023-04-03T05:04:35.564Z,-1.56
2023-04-03T05:07:11.672Z,-1.49
2023-04-03T05:09:43.795Z,-1.42
2023-04-03T05:12:15.169Z,-1.34
2023-04-03T05:14:51.304Z,-1.27
2023-04-03T05:17:21.704Z,-1.19
2023-04-03T05:19:54.663Z,-1.11
2023-04-03T05:22:24.880Z,-1.05
2023-04-03T05:24:54.810Z,-0.96
2023-04-03T05:27:29.539Z,-0.89
2023-04-03T05:30:01.143Z,-0.81
2023-04-03T05:32:30.626Z,-0.73
2023-04-03T05:35:13.169Z,-0.64
2023-04-03T05:37:43.923Z,-0.58
2023-04-03T05:40:16.377Z,-0.51
2023-04-03T05:42:49.174Z,-0.42
2023-04-03T05:45:18.846Z,-0.33
2023-04-03T05:47:48.757Z,-0.23
2023-04-03T05:50:19.841Z,-0.15
2023-04-03T05:52:52.777Z,-0.08
2023-04-03T05:55:23.356Z,0.01
2023-04-03T05:57:53.572Z,0.10
2023-04-03T06:00:24.636Z,0.18
2023-04-03T06:02:58.977Z,0.30
2023-04-03T06:05:28.318Z,0.42
2023-04-03T06:07:58.552Z,0.51
2023-04-03T06:10:31.270Z,0.59
2023-04-03T06:13:00.433Z,0.69
2023-04-03T06:15:29.710Z,0.77
2023-04-03T06:18:00.429Z,0.85
2023-04-03T06:20:31.041Z,0.91
2023-04-03T06:23:01.552Z,0.98
2023-04-03T06:25:32.069Z,1.05
2023-04-03T06:28:02.677Z,1.14
2023-04-03T06:30:31.618Z,1.25
2023-04-03T06:33:01.023Z,1.35
2023-04-03T06:35:31.725Z,1.44
2023-04-03T06:38:00.731Z,1.51
2023-04-03T06:40:29.937Z,1.60
2023-04-03T06:42:59.338Z,1.73
2023-04-03T06:45:29.252Z,1.82
2023-04-03T06:47:58.370Z,1.92
2023-04-03T06:50:28.724Z,2.06
2023-04-03T06:52:58.828Z,2.18
2023-04-03T06:55:28.211Z,3.16
2023-04-03T06:57:57.023Z,6.16
2023-04-03T07:00:26.472Z,9.15
2023-04-03T07:02:58.102Z,11.58
2023-04-03T07:05:27.993Z,13.59
2023-04-03T07:07:56.909Z,15.21
2023-04-03T07:10:25.503Z,16.53
2023-04-03T07:12:54.733Z,17.69
2023-04-03T07:15:23.661Z,18.84
2023-04-03T07:17:52.468Z,19.69
2023-04-03T07:20:21.324Z,20.60
2023-04-03T07:22:50.104Z,21.31
2023-04-03T07:25:18.974Z,21.67
2023-04-03T07:27:48.936Z,22.11
2023-04-03T07:30:18.398Z,22.84
2023-04-03T07:32:47.562Z,23.44
2023-04-03T07:35:17.760Z,23.71
2023-04-03T07:37:46.384Z,23.99
2023-04-03T07:40:15.007Z,24.36
2023-04-03T07:42:43.645Z,24.73
2023-04-03T07:45:12.415Z,25.09
2023-04-03T07:47:41.585Z,25.48
2023-04-03T07:50:10.153Z,25.45
2023-04-03T07:52:38.739Z,25.40
2023-04-03T07:55:08.122Z,25.47
2023-04-03T07:57:40.316Z,25.64
2023-04-03T08:00:10.298Z,26.00
2023-04-03T08:02:41.476Z,26.28
2023-04-03T08:05:10.537Z,26.59
2023-04-03T08:07:40.234Z,27.10
2023-04-03T08:10:09.170Z,27.44
2023-04-03T08:12:38.564Z,27.49
2023-04-03T08:15:09.622Z,27.69
2023-04-03T08:17:38.383Z,27.28
2023-04-03T08:20:08.274Z,27.06
2023-04-03T08:22:37.588Z,27.43
2023-04-03T08:25:07.755Z,28.07
2023-04-03T08:27:37.568Z,26.65
2023-04-03T08:30:07.944Z,25.72
2023-04-03T08:32:39.118Z,23.43
2023-04-03T08:35:09.073Z,22.40
2023-04-03T08:37:41.831Z,22.35
2023-04-03T08:40:15.958Z,23.58
2023-04-03T08:42:50.644Z,22.85
2023-04-03T08:45:23.785Z,23.00
2023-04-03T08:48:07.124Z,21.97
2023-04-03T08:50:42.093Z,22.22
2023-04-03T08:53:17.656Z,20.34
2023-04-03T08:55:46.549Z,20.10
2023-04-03T08:58:41.680Z,19.17
2023-04-03T09:01:19.247Z,18.25
2023-04-03T09:03:47.966Z,17.67
2023-04-03T09:06:16.589Z,18.25
2023-04-03T09:08:50.099Z,19.45
2023-04-03T09:11:28.081Z,20.31
2023-04-03T09:14:21.731Z,21.91
2023-04-03T09:17:12.199Z,23.64
2023-04-03T09:20:01.088Z,24.60
2023-04-03T09:23:32.319Z,23.87
2023-04-03T09:26:14.456Z,22.24
2023-04-03T09:28:51.326Z,21.27
2023-04-03T09:31:45.309Z,20.57
2023-04-03T09:34:23.307Z,20.63
2023-04-03T09:36:55.725Z,20.12
2023-04-03T09:39:26.126Z,19.02
2023-04-03T09:42:04.216Z,19.76
2023-04-03T09:44:39.168Z,19.84
2023-04-03T09:47:26.997Z,20.49
2023-04-03T09:50:25.301Z,20.18
2023-04-03T09:52:55.067Z,19.16
2023-04-03T09:55:30.965Z,19.76
2023-04-03T09:58:02.001Z,18.64
2023-04-03T10:00:31.689Z,17.35
2023-04-03T10:03:01.923Z,16.75
2023-04-03T10:05:37.726Z,17.58
2023-04-03T10:08:12.229Z,19.10
2023-04-03T10:10:48.474Z,20.94
2023-04-03T10:13:22.813Z,22.27
2023-04-03T10:16:00.120Z,23.44
2023-04-03T10:18:32.431Z,24.45
2023-04-03T10:21:14.508Z,24.60
2023-04-03T10:24:13.406Z,24.62
2023-04-03T10:26:50.815Z,25.24
2023-04-03T10:29:34.243Z,25.54
2023-04-03T10:32:09.792Z,24.85
2023-04-03T10:34:54.683Z,24.80
2023-04-03T10:37:38.397Z,24.80
2023-04-03T10:40:16.897Z,24.91
2023-04-03T10:42:59.034Z,24.78
2023-04-03T10:45:37.336Z,23.83
2023-04-03T10:48:07.409Z,22.03
2023-04-03T10:50:48.852Z,21.96
2023-04-03T10:53:41.264Z,22.16
2023-04-03T10:56:11.554Z,22.08
2023-04-03T10:58:48.574Z,21.31
2023-04-03T11:01:20.567Z,21.32
2023-04-03T11:03:58.920Z,21.68
2023-04-03T11:06:37.427Z,21.71
2023-04-03T11:09:24.546Z,22.17
2023-04-03T11:12:08.207Z,22.40
2023-04-03T11:14:40.078Z,20.44
2023-04-03T11:17:38.518Z,19.72
2023-04-03T11:20:08.492Z,20.46
2023-04-03T11:23:03.083Z,19.45
2023-04-03T11:25:38.513Z,19.22
2023-04-03T11:28:12.492Z,19.81
2023-04-03T11:31:04.271Z,19.75
2023-04-03T11:33:43.918Z,19.52
2023-04-03T11:36:25.571Z,19.45
2023-04-03T11:39:00.548Z,18.86
2023-04-03T11:41:31.135Z,17.75
2023-04-03T11:44:03.778Z,16.94
2023-04-03T11:46:52.420Z,15.98
2023-04-03T11:49:41.417Z,15.48
2023-04-03T11:52:12.468Z,15.11
2023-04-03T11:54:44.921Z,15.55
2023-04-03T11:57:33.266Z,16.18
2023-04-03T12:00:25.144Z,16.17
2023-04-03T12:02:56.234Z,15.24
2023-04-03T12:05:30.083Z,15.13
2023-04-03T12:08:18.763Z,14.87
2023-04-03T12:11:07.832Z,14.86
2023-04-03T12:13:37.941Z,14.61
2023-04-03T12:16:11.087Z,14.09
2023-04-03T12:18:46.370Z,14.28
2023-04-03T12:21:24.620Z,14.83
2023-04-03T12:23:59.914Z,15.32
2023-04-03T12:26:42.055Z,15.60
2023-04-03T12:29:17.377Z,15.40
2023-04-03T12:32:05.125Z,14.64
2023-04-03T12:34:57.966Z,14.73
2023-04-03T12:37:45.623Z,15.23
2023-04-03T12:40:39.455Z,15.29
2023-04-03T12:43:29.118Z,14.69
2023-04-03T12:46:06.294Z,14.38
2023-04-03T12:48:48.806Z,14.58
2023-04-03T12:51:37.207Z,14.49
2023-04-03T12:54:16.076Z,14.12
2023-04-03T12:56:47.485Z,13.82
2023-04-03T12:59:23.506Z,13.60
2023-04-03T13:01:59.605Z,13.88
2023-04-03T13:04:29.525Z,14.33
2023-04-03T13:06:58.880Z,14.22
2023-04-03T13:09:30.789Z,13.60
2023-04-03T13:12:06.640Z,13.53
2023-04-03T13:14:40.107Z,13.13
2023-04-03T13:17:12.001Z,12.64
2023-04-03T13:19:43.456Z,11.96
2023-04-03T13:23:02.888Z,11.51
2023-04-03T13:25:36.748Z,11.90
2023-04-03T13:28:13.804Z,12.31
2023-04-03T13:30:55.769Z,12.53
2023-04-03T13:33:27.239Z,12.07
2023-04-03T13:36:07.528Z,11.54
2023-04-03T13:38:38.005Z,11.16
2023-04-03T13:44:23.105Z,11.45
2023-04-03T13:46:53.403Z,11.06
2023-04-03T13:49:29.591Z,10.69
2023-04-03T13:52:07.321Z,10.81
2023-04-03T13:54:40.338Z,11.24
2023-04-03T13:57:14.994Z,11.51
2023-04-03T13:59:46.376Z,11.15
2023-04-03T14:02:34.991Z,10.67
2023-04-03T14:05:07.050Z,10.34
2023-04-03T14:07:36.782Z,10.46
2023-04-03T14:10:08.994Z,10.39
2023-04-03T14:12:40.541Z,9.99
2023-04-03T14:15:17.421Z,9.89
2023-04-03T14:17:46.364Z,10.07
2023-04-03T14:20:21.050Z,9.83
2023-04-03T14:22:52.255Z,9.52
2023-04-03T14:25:21.920Z,9.24
2023-04-03T14:27:52.212Z,9.26
2023-04-03T14:30:26.169Z,9.50
2023-04-03T14:32:55.906Z,9.26
2023-04-03T14:35:25.883Z,8.96
2023-04-03T14:37:55.443Z,8.70
2023-04-03T14:40:26.629Z,8.46
2023-04-03T14:42:56.687Z,8.39
2023-04-03T14:45:25.885Z,8.59
2023-04-03T14:47:56.579Z,8.70
2023-04-03T14:50:28.406Z,8.51
2023-04-03T14:52:59.209Z,8.25
2023-04-03T14:55:29.899Z,7.95
2023-04-03T14:57:58.860Z,7.75
2023-04-03T15:00:29.071Z,7.63
2023-04-03T15:03:17.343Z,7.46
2023-04-03T15:05:48.280Z,7.19
2023-04-03T15:08:22.778Z,6.93
2023-04-03T15:10:54.054Z,6.73
2023-04-03T15:13:24.310Z,6.58
2023-04-03T15:15:54.439Z,6.56
2023-04-03T15:18:30.385Z,6.80
2023-04-03T15:21:00.312Z,6.85
2023-04-03T15:23:31.413Z,6.74
2023-04-03T15:26:00.635Z,6.61
2023-04-03T15:28:39.586Z,6.49
2023-04-03T15:31:09.043Z,6.36
2023-04-03T15:33:38.414Z,6.25
2023-04-03T15:36:17.201Z,6.18
2023-04-03T15:38:56.331Z,6.18
2023-04-03T15:41:27.229Z,6.11
2023-04-03T15:43:57.900Z,6.01
2023-04-03T15:46:26.619Z,5.93
2023-04-03T15:48:59.527Z,5.88
2023-04-03T15:51:31.637Z,5.95
2023-04-03T15:54:00.497Z,5.98
2023-04-03T15:56:29.886Z,5.90
2023-04-03T15:59:03.403Z,5.79
2023-04-03T16:01:37.385Z,5.70
2023-04-03T16:04:08.970Z,5.61
2023-04-03T16:06:39.978Z,5.46
2023-04-03T16:09:09.478Z,5.36
2023-04-03T16:11:40.643Z,5.29
2023-04-03T16:14:09.915Z,5.20
2023-04-03T16:16:40.188Z,5.12
2023-04-03T16:19:11.564Z,5.06
2023-04-03T16:21:42.388Z,4.96
2023-04-03T16:24:37.258Z,4.79
2023-04-03T16:27:07.780Z,4.67
2023-04-03T16:29:37.717Z,4.60
2023-04-03T16:32:06.932Z,4.45
2023-04-03T16:34:36.120Z,4.39
2023-04-03T16:37:06.637Z,4.32
2023-04-03T16:39:36.779Z,4.20
2023-04-03T16:42:08.422Z,4.06
2023-04-03T16:44:39.601Z,3.99
2023-04-03T16:47:11.379Z,3.95
2023-04-03T16:49:41.516Z,3.91
2023-04-03T16:52:12.653Z,3.85
2023-04-03T16:54:42.901Z,3.82
2023-04-03T16:57:12.660Z,3.77
2023-04-03T16:59:43.269Z,3.72
2023-04-03T17:02:13.270Z,3.66
2023-04-03T17:04:43.358Z,3.54
2023-04-03T17:07:15.571Z,3.47
2023-04-03T17:09:45.484Z,3.44
2023-04-03T17:12:15.900Z,3.46
2023-04-03T17:14:45.176Z,3.44
2023-04-03T17:17:15.501Z,3.39
2023-04-03T17:19:45.612Z,3.36
2023-04-03T17:22:17.384Z,3.36
2023-04-03T17:24:48.442Z,3.30
2023-04-03T17:27:17.892Z,3.20
2023-04-03T17:29:51.926Z,3.12
2023-04-03T17:32:23.823Z,3.00
2023-04-03T17:34:54.887Z,2.94
2023-04-03T17:37:26.268Z,2.95
2023-04-03T17:39:58.818Z,2.90
2023-04-03T17:42:32.005Z,2.82
2023-04-03T17:45:05.580Z,2.79
2023-04-03T17:47:35.898Z,2.72
2023-04-03T17:50:08.270Z,2.69
2023-04-03T17:52:39.852Z,2.67
2023-04-03T17:55:10.457Z,2.62
2023-04-03T17:57:42.261Z,2.54
2023-04-03T18:00:13.970Z,2.45
2023-04-03T18:02:45.112Z,2.38
2023-04-03T18:05:17.449Z,2.32
2023-04-03T18:07:51.091Z,2.23
2023-04-03T18:10:24.363Z,2.14
2023-04-03T18:12:57.771Z,2.11
2023-04-03T18:15:30.327Z,2.04
2023-04-03T18:18:04.437Z,1.98
2023-04-03T18:20:34.846Z,1.98
2023-04-03T18:23:04.674Z,1.97
2023-04-03T18:25:38.694Z,1.94
2023-04-03T18:28:10.336Z,1.91
2023-04-03T18:30:43.883Z,1.82
2023-04-03T18:33:14.155Z,1.75
2023-04-03T18:35:51.865Z,1.72
2023-04-03T18:38:22.650Z,1.74
2023-04-03T18:40:55.810Z,1.77
2023-04-03T18:43:28.518Z,1.84
2023-04-03T18:45:59.187Z,1.88
2023-04-03T18:48:32.019Z,1.89
2023-04-03T18:51:06.694Z,1.88
2023-04-03T18:53:37.781Z,1.94
2023-04-03T18:56:09.861Z,1.91
2023-04-03T18:58:43.449Z,1.86
2023-04-03T19:01:13.768Z,1.82
2023-04-03T19:03:49.541Z,1.71
2023-04-03T19:06:23.424Z,1.59
2023-04-03T19:09:03.090Z,1.52
2023-04-03T19:11:40.205Z,1.39
2023-04-03T19:14:16.749Z,1.30
2023-04-03T19:16:50.088Z,1.26
2023-04-03T19:19:25.110Z,1.25
2023-04-03T19:21:57.262Z,1.18
2023-04-03T19:24:31.807Z,1.11
2023-04-03T19:27:02.434Z,1.09
2023-04-03T19:29:34.170Z,1.07
2023-04-03T19:32:05.658Z,1.02
2023-04-03T19:34:38.178Z,0.99
2023-04-03T19:37:11.443Z,0.96
2023-04-03T19:39:43.392Z,1.03
2023-04-03T19:42:20.120Z,1.00
2023-04-03T19:44:52.911Z,0.96
2023-04-03T19:47:24.762Z,0.92
2023-04-03T19:49:55.835Z,0.90
2023-04-03T19:52:27.862Z,1.00
2023-04-03T19:54:58.504Z,0.94
2023-04-03T19:57:33.751Z,0.89
2023-04-03T20:00:08.543Z,0.88
2023-04-03T20:02:42.663Z,0.85
2023-04-03T20:05:14.225Z,0.78
2023-04-03T20:07:49.201Z,0.74
2023-04-03T20:10:21.085Z,0.68
2023-04-03T20:12:51.788Z,0.61
2023-04-03T20:15:22.231Z,0.57
2023-04-03T20:17:53.995Z,0.53
2023-04-03T20:20:26.129Z,0.48
2023-04-03T20:23:35.746Z,0.46
2023-04-03T20:26:15.281Z,0.35
2023-04-03T20:28:45.549Z,0.30
2023-04-03T20:31:17.068Z,0.23
2023-04-03T20:33:47.094Z,0.19
2023-04-03T20:36:18.686Z,0.10
2023-04-03T20:38:49.714Z,0.04
2023-04-03T20:41:20.941Z,0.04
2023-04-03T20:43:50.666Z,0.01
2023-04-03T20:46:21.276Z,-0.02
2023-04-03T20:48:54.411Z,-0.07
2023-04-03T20:51:24.765Z,-0.10
2023-04-03T20:53:55.828Z,-0.14
2023-04-03T20:56:25.912Z,-0.20
2023-04-03T20:58:56.990Z,-0.25
2023-04-03T21:01:27.793Z,-0.32
2023-04-03T21:04:01.485Z,-0.38
2023-04-03T21:06:50.628Z,-0.43
2023-04-03T21:09:38.106Z,-0.45
2023-04-03T21:12:25.709Z,-0.50
2023-04-03T21:15:14.184Z,-0.54
2023-04-03T21:17:57.877Z,-0.61
2023-04-03T21:20:27.634Z,-0.63
2023-04-03T21:23:04.701Z,-0.63
2023-04-03T21:25:33.558Z,-0.67
2023-04-03T21:28:03.327Z,-0.74
2023-04-03T21:30:34.809Z,-0.76
2023-04-03T21:33:05.437Z,-0.81
2023-04-03T21:35:35.783Z,-0.86
2023-04-03T21:38:05.296Z,-0.92
2023-04-03T21:40:34.158Z,-0.95
2023-04-03T21:43:05.550Z,-0.98
2023-04-03T21:45:39.652Z,-1.01
2023-04-03T21:48:10.604Z,-1.03
2023-04-03T21:50:40.460Z,-1.04
2023-04-03T21:53:09.301Z,-1.09
2023-04-03T21:55:40.143Z,-1.14
2023-04-03T21:58:10.602Z,-1.22
2023-04-03T22:00:39.714Z,-1.29
2023-04-03T22:03:10.717Z,-1.35
2023-04-03T22:05:40.254Z,-1.40
2023-04-03T22:08:08.837Z,-1.44
2023-04-03T22:10:41.590Z,-1.49
2023-04-03T22:13:10.843Z,-1.53
2023-04-03T22:15:47.829Z,-1.56
2023-04-03T22:18:17.117Z,-1.60
2023-04-03T22:20:47.428Z,-1.65
2023-04-03T22:23:17.046Z,-1.70
2023-04-03T22:26:00.453Z,-1.74
2023-04-03T22:28:30.140Z,-1.78
2023-04-03T22:31:16.819Z,-1.83
2023-04-03T22:33:46.467Z,-1.87
2023-04-03T22:36:15.980Z,-1.90
2023-04-03T22:38:49.138Z,-1.95
2023-04-03T22:41:17.826Z,-1.99
2023-04-03T22:43:49.374Z,-2.04
2023-04-03T22:46:18.451Z,-2.07
2023-04-03T22:48:48.930Z,-2.10
2023-04-03T22:51:17.533Z,-2.14
2023-04-03T22:53:47.775Z,-2.17
2023-04-03T22:56:16.489Z,-2.21
2023-04-03T22:58:48.498Z,-2.25
2023-04-03T23:01:17.707Z,-2.30
2023-04-03T23:03:48.924Z,-2.33
2023-04-03T23:06:17.950Z,-2.37
2023-04-03T23:08:46.719Z,-2.41
2023-04-03T23:11:15.340Z,-2.45
2023-04-03T23:13:44.355Z,-2.49
2023-04-03T23:16:13.666Z,-2.52
2023-04-03T23:18:43.982Z,-2.55
2023-04-03T23:21:14.527Z,-2.58
2023-04-03T23:23:49.628Z,-2.61
2023-04-03T23:26:18.529Z,-2.64
2023-04-03T23:28:47.276Z,-2.68
2023-04-03T23:31:17.080Z,-2.71
2023-04-03T23:33:45.912Z,-2.75
2023-04-03T23:36:18.785Z,-2.79
2023-04-03T23:38:47.425Z,-2.82
2023-04-03T23:41:15.884Z,-2.86
2023-04-03T23:43:46.879Z,-2.89
2023-04-03T23:46:15.683Z,-2.92
2023-04-03T23:48:44.402Z,-2.95
2023-04-03T23:51:14.321Z,-2.96
2023-04-03T23:53:45.015Z,-2.97
2023-04-03T23:56:13.728Z,-2.98
2023-04-03T23:58:44.196Z,-2.99
